sensor_id;sensor_type;location;lat;lon;timestamp;pressure;altitude;pressure_sealevel;temperature;humidity
36234;BME280;43467;50.890;5.982;2023-04-15T00:01:37;99312.19;;;11.22;48.68
36234;BME280;43467;50.890;5.982;2023-04-15T00:04:02;99308.50;;;11.25;48.37
36234;BME280;43467;50.890;5.982;2023-04-15T00:06:28;99308.59;;;11.23;48.57
36234;BME280;43467;50.890;5.982;2023-04-15T00:08:54;99308.19;;;11.29;48.05
36234;BME280;43467;50.890;5.982;2023-04-15T00:11:19;99314.63;;;11.39;47.63
36234;BME280;43467;50.890;5.982;2023-04-15T00:13:45;99313.28;;;11.46;47.56
36234;BME280;43467;50.890;5.982;2023-04-15T00:16:10;99310.03;;;11.55;46.94
36234;BME280;43467;50.890;5.982;2023-04-15T00:18:36;99305.41;;;11.59;46.77
36234;BME280;43467;50.890;5.982;2023-04-15T00:21:03;99307.19;;;11.58;46.64
36234;BME280;43467;50.890;5.982;2023-04-15T00:23:28;99308.81;;;11.61;46.95
36234;BME280;43467;50.890;5.982;2023-04-15T00:25:54;99310.19;;;11.66;47.15
36234;BME280;43467;50.890;5.982;2023-04-15T00:28:19;99307.94;;;11.75;46.85
36234;BME280;43467;50.890;5.982;2023-04-15T00:30:46;99297.44;;;11.73;47.26
36234;BME280;43467;50.890;5.982;2023-04-15T00:33:12;99300.34;;;11.69;47.13
36234;BME280;43467;50.890;5.982;2023-04-15T00:35:38;99305.47;;;11.72;47.49
36234;BME280;43467;50.890;5.982;2023-04-15T00:38:05;99302.25;;;11.66;47.53
36234;BME280;43467;50.890;5.982;2023-04-15T00:40:32;99303.50;;;11.61;48.50
36234;BME280;43467;50.890;5.982;2023-04-15T00:42:57;99296.94;;;11.66;48.57
36234;BME280;43467;50.890;5.982;2023-04-15T00:45:23;99291.50;;;11.55;49.72
36234;BME280;43467;50.890;5.982;2023-04-15T00:47:48;99293.94;;;11.58;49.37
36234;BME280;43467;50.890;5.982;2023-04-15T00:50:14;99288.03;;;11.41;49.48
36234;BME280;43467;50.890;5.982;2023-04-15T00:52:40;99287.97;;;11.55;49.86
36234;BME280;43467;50.890;5.982;2023-04-15T00:55:06;99291.13;;;11.47;48.41
36234;BME280;43467;50.890;5.982;2023-04-15T00:57:32;99286.09;;;11.57;47.98
36234;BME280;43467;50.890;5.982;2023-04-15T00:59:57;99295.13;;;11.67;47.78
36234;BME280;43467;50.890;5.982;2023-04-15T01:02:23;99294.41;;;11.65;47.86
36234;BME280;43467;50.890;5.982;2023-04-15T01:04:49;99285.03;;;11.59;47.74
36234;BME280;43467;50.890;5.982;2023-04-15T01:07:14;99290.34;;;11.59;47.04
36234;BME280;43467;50.890;5.982;2023-04-15T01:09:40;99289.09;;;11.65;47.17
36234;BME280;43467;50.890;5.982;2023-04-15T01:12:06;99292.06;;;11.60;47.40
36234;BME280;43467;50.890;5.982;2023-04-15T01:14:34;99294.19;;;11.68;46.93
36234;BME280;43467;50.890;5.982;2023-04-15T01:17:00;99293.28;;;11.55;47.48
36234;BME280;43467;50.890;5.982;2023-04-15T01:19:26;99295.94;;;11.55;47.88
36234;BME280;43467;50.890;5.982;2023-04-15T01:21:52;99293.78;;;11.47;48.22
36234;BME280;43467;50.890;5.982;2023-04-15T01:24:18;99287.06;;;11.42;47.50
36234;BME280;43467;50.890;5.982;2023-04-15T01:26:44;99283.56;;;11.41;47.83
36234;BME280;43467;50.890;5.982;2023-04-15T01:29:09;99286.47;;;11.51;47.60
36234;BME280;43467;50.890;5.982;2023-04-15T01:31:34;99282.41;;;11.45;47.55
36234;BME280;43467;50.890;5.982;2023-04-15T01:34:00;99291.13;;;11.47;47.69
36234;BME280;43467;50.890;5.982;2023-04-15T01:36:26;99288.84;;;11.55;47.28
36234;BME280;43467;50.890;5.982;2023-04-15T01:38:52;99291.50;;;11.55;47.46
36234;BME280;43467;50.890;5.982;2023-04-15T01:41:24;99286.88;;;11.45;47.99
36234;BME280;43467;50.890;5.982;2023-04-15T01:43:50;99281.97;;;11.39;47.91
36234;BME280;43467;50.890;5.982;2023-04-15T01:46:16;99287.56;;;11.34;47.75
36234;BME280;43467;50.890;5.982;2023-04-15T01:48:42;99287.91;;;11.42;47.38
36234;BME280;43467;50.890;5.982;2023-04-15T01:51:07;99288.47;;;11.47;47.90
36234;BME280;43467;50.890;5.982;2023-04-15T01:53:32;99284.31;;;11.43;48.17
36234;BME280;43467;50.890;5.982;2023-04-15T01:55:58;99287.63;;;11.47;48.35
36234;BME280;43467;50.890;5.982;2023-04-15T01:58:23;99289.84;;;11.40;48.66
36234;BME280;43467;50.890;5.982;2023-04-15T02:00:49;99284.69;;;11.37;48.35
36234;BME280;43467;50.890;5.982;2023-04-15T02:03:14;99292.78;;;11.36;49.05
36234;BME280;43467;50.890;5.982;2023-04-15T02:05:40;99283.69;;;11.40;48.96
36234;BME280;43467;50.890;5.982;2023-04-15T02:08:05;99278.66;;;11.35;49.03
36234;BME280;43467;50.890;5.982;2023-04-15T02:10:30;99288.81;;;11.14;49.17
36234;BME280;43467;50.890;5.982;2023-04-15T02:12:56;99287.41;;;11.23;48.91
36234;BME280;43467;50.890;5.982;2023-04-15T02:15:21;99293.34;;;11.27;49.32
36234;BME280;43467;50.890;5.982;2023-04-15T02:17:47;99294.28;;;11.26;49.00
36234;BME280;43467;50.890;5.982;2023-04-15T02:20:15;99291.38;;;11.16;48.64
36234;BME280;43467;50.890;5.982;2023-04-15T02:22:42;99293.66;;;10.94;49.42
36234;BME280;43467;50.890;5.982;2023-04-15T02:25:09;99280.81;;;10.88;49.26
36234;BME280;43467;50.890;5.982;2023-04-15T02:27:35;99284.56;;;10.98;48.94
36234;BME280;43467;50.890;5.982;2023-04-15T02:30:01;99287.63;;;10.92;48.61
36234;BME280;43467;50.890;5.982;2023-04-15T02:32:27;99285.63;;;10.95;48.89
36234;BME280;43467;50.890;5.982;2023-04-15T02:34:53;99286.84;;;10.90;49.37
36234;BME280;43467;50.890;5.982;2023-04-15T02:37:18;99286.56;;;10.94;48.91
36234;BME280;43467;50.890;5.982;2023-04-15T02:39:45;99290.44;;;10.89;48.75
36234;BME280;43467;50.890;5.982;2023-04-15T02:42:10;99298.19;;;10.78;48.96
36234;BME280;43467;50.890;5.982;2023-04-15T02:44:36;99293.75;;;10.92;48.54
36234;BME280;43467;50.890;5.982;2023-04-15T02:47:01;99296.72;;;10.88;48.37
36234;BME280;43467;50.890;5.982;2023-04-15T02:49:29;99306.31;;;10.89;48.40
36234;BME280;43467;50.890;5.982;2023-04-15T02:51:55;99304.53;;;10.89;48.36
36234;BME280;43467;50.890;5.982;2023-04-15T02:54:22;99307.19;;;10.89;48.43
36234;BME280;43467;50.890;5.982;2023-04-15T02:56:48;99315.25;;;10.88;48.65
36234;BME280;43467;50.890;5.982;2023-04-15T02:59:14;99310.97;;;10.85;48.39
36234;BME280;43467;50.890;5.982;2023-04-15T03:01:40;99318.44;;;10.79;48.45
36234;BME280;43467;50.890;5.982;2023-04-15T03:04:05;99320.16;;;10.80;48.38
36234;BME280;43467;50.890;5.982;2023-04-15T03:06:33;99321.84;;;10.81;48.40
36234;BME280;43467;50.890;5.982;2023-04-15T03:08:58;99328.09;;;10.80;48.38
36234;BME280;43467;50.890;5.982;2023-04-15T03:11:25;99322.03;;;10.78;48.66
36234;BME280;43467;50.890;5.982;2023-04-15T03:13:51;99331.41;;;10.83;48.52
36234;BME280;43467;50.890;5.982;2023-04-15T03:16:16;99321.56;;;10.71;49.06
36234;BME280;43467;50.890;5.982;2023-04-15T03:18:42;99322.03;;;10.63;49.38
36234;BME280;43467;50.890;5.982;2023-04-15T03:21:07;99316.88;;;10.46;49.43
36234;BME280;43467;50.890;5.982;2023-04-15T03:23:33;99315.25;;;10.30;50.05
36234;BME280;43467;50.890;5.982;2023-04-15T03:26:01;99324.91;;;10.31;50.45
36234;BME280;43467;50.890;5.982;2023-04-15T03:28:26;99315.06;;;10.33;50.49
36234;BME280;43467;50.890;5.982;2023-04-15T03:30:52;99319.34;;;10.35;50.70
36234;BME280;43467;50.890;5.982;2023-04-15T03:33:18;99319.59;;;10.31;50.71
36234;BME280;43467;50.890;5.982;2023-04-15T03:35:43;99319.28;;;10.21;51.14
36234;BME280;43467;50.890;5.982;2023-04-15T03:38:09;99323.53;;;10.08;51.67
36234;BME280;43467;50.890;5.982;2023-04-15T03:40:34;99318.50;;;10.19;51.68
36234;BME280;43467;50.890;5.982;2023-04-15T03:42:59;99322.59;;;10.24;51.37
36234;BME280;43467;50.890;5.982;2023-04-15T03:45:25;99318.22;;;10.23;51.32
36234;BME280;43467;50.890;5.982;2023-04-15T03:47:51;99324.66;;;10.19;51.71
36234;BME280;43467;50.890;5.982;2023-04-15T03:50:16;99324.84;;;10.01;52.27
36234;BME280;43467;50.890;5.982;2023-04-15T03:52:43;99318.25;;;10.08;52.05
36234;BME280;43467;50.890;5.982;2023-04-15T03:55:09;99327.91;;;10.09;51.83
36234;BME280;43467;50.890;5.982;2023-04-15T03:57:34;99326.00;;;10.11;51.99
36234;BME280;43467;50.890;5.982;2023-04-15T04:00:07;99332.78;;;10.16;51.78
36234;BME280;43467;50.890;5.982;2023-04-15T04:02:34;99334.56;;;10.00;52.34
36234;BME280;43467;50.890;5.982;2023-04-15T04:04:59;99334.56;;;10.00;52.52
36234;BME280;43467;50.890;5.982;2023-04-15T04:07:25;99334.03;;;10.09;52.28
36234;BME280;43467;50.890;5.982;2023-04-15T04:09:50;99331.91;;;10.16;51.53
36234;BME280;43467;50.890;5.982;2023-04-15T04:12:16;99342.22;;;10.20;51.24
36234;BME280;43467;50.890;5.982;2023-04-15T04:14:41;99337.97;;;10.18;51.24
36234;BME280;43467;50.890;5.982;2023-04-15T04:17:07;99342.50;;;10.16;51.32
36234;BME280;43467;50.890;5.982;2023-04-15T04:19:32;99345.91;;;10.18;51.54
36234;BME280;43467;50.890;5.982;2023-04-15T04:21:58;99350.66;;;10.11;51.49
36234;BME280;43467;50.890;5.982;2023-04-15T04:24:23;99352.63;;;10.08;51.35
36234;BME280;43467;50.890;5.982;2023-04-15T04:26:49;99359.56;;;10.10;50.93
36234;BME280;43467;50.890;5.982;2023-04-15T04:29:14;99355.53;;;10.19;51.42
36234;BME280;43467;50.890;5.982;2023-04-15T04:31:40;99353.66;;;10.21;51.23
36234;BME280;43467;50.890;5.982;2023-04-15T04:34:05;99353.66;;;10.21;51.00
36234;BME280;43467;50.890;5.982;2023-04-15T04:36:31;99363.88;;;10.27;50.87
36234;BME280;43467;50.890;5.982;2023-04-15T04:38:56;99360.03;;;10.33;51.29
36234;BME280;43467;50.890;5.982;2023-04-15T04:41:21;99365.50;;;10.30;50.83
36234;BME280;43467;50.890;5.982;2023-04-15T04:43:47;99369.59;;;10.35;50.77
36234;BME280;43467;50.890;5.982;2023-04-15T04:46:13;99375.47;;;10.40;50.86
36234;BME280;43467;50.890;5.982;2023-04-15T04:48:39;99377.66;;;10.48;50.90
36234;BME280;43467;50.890;5.982;2023-04-15T04:51:05;99377.84;;;10.45;50.74
36234;BME280;43467;50.890;5.982;2023-04-15T04:53:31;99374.44;;;10.43;51.28
36234;BME280;43467;50.890;5.982;2023-04-15T04:55:58;99373.06;;;10.36;52.08
36234;BME280;43467;50.890;5.982;2023-04-15T04:58:23;99384.38;;;10.23;52.43
36234;BME280;43467;50.890;5.982;2023-04-15T05:00:48;99384.88;;;10.30;51.64
36234;BME280;43467;50.890;5.982;2023-04-15T05:03:14;99389.22;;;10.31;51.73
36234;BME280;43467;50.890;5.982;2023-04-15T05:05:39;99388.66;;;10.26;50.79
36234;BME280;43467;50.890;5.982;2023-04-15T05:08:06;99396.94;;;10.20;51.39
36234;BME280;43467;50.890;5.982;2023-04-15T05:10:31;99401.78;;;10.12;51.56
36234;BME280;43467;50.890;5.982;2023-04-15T05:12:57;99399.38;;;10.07;51.57
36234;BME280;43467;50.890;5.982;2023-04-15T05:15:22;99411.75;;;10.07;51.74
36234;BME280;43467;50.890;5.982;2023-04-15T05:17:48;99420.91;;;10.01;52.05
36234;BME280;43467;50.890;5.982;2023-04-15T05:20:13;99411.50;;;9.96;52.07
36234;BME280;43467;50.890;5.982;2023-04-15T05:22:39;99414.34;;;9.93;52.70
36234;BME280;43467;50.890;5.982;2023-04-15T05:25:04;99420.66;;;9.90;53.32
36234;BME280;43467;50.890;5.982;2023-04-15T05:27:30;99432.06;;;9.91;52.99
36234;BME280;43467;50.890;5.982;2023-04-15T05:29:55;99438.47;;;9.87;52.77
36234;BME280;43467;50.890;5.982;2023-04-15T05:32:21;99437.47;;;9.89;52.74
36234;BME280;43467;50.890;5.982;2023-04-15T05:34:46;99440.94;;;9.90;52.98
36234;BME280;43467;50.890;5.982;2023-04-15T05:37:12;99448.78;;;9.91;52.87
36234;BME280;43467;50.890;5.982;2023-04-15T05:39:37;99445.13;;;9.94;52.92
36234;BME280;43467;50.890;5.982;2023-04-15T05:42:03;99441.53;;;9.95;52.44
36234;BME280;43467;50.890;5.982;2023-04-15T05:44:30;99461.69;;;9.97;52.71
36234;BME280;43467;50.890;5.982;2023-04-15T05:46:55;99460.16;;;9.93;52.37
36234;BME280;43467;50.890;5.982;2023-04-15T05:49:21;99461.00;;;9.94;52.14
36234;BME280;43467;50.890;5.982;2023-04-15T05:51:47;99466.28;;;9.94;51.94
36234;BME280;43467;50.890;5.982;2023-04-15T05:54:12;99466.03;;;9.98;52.02
36234;BME280;43467;50.890;5.982;2023-04-15T05:56:37;99464.22;;;9.99;51.89
36234;BME280;43467;50.890;5.982;2023-04-15T05:59:03;99468.69;;;9.98;52.29
36234;BME280;43467;50.890;5.982;2023-04-15T06:01:28;99478.47;;;9.96;52.14
36234;BME280;43467;50.890;5.982;2023-04-15T06:03:54;99470.63;;;9.95;52.11
36234;BME280;43467;50.890;5.982;2023-04-15T06:06:20;99475.59;;;10.01;52.10
36234;BME280;43467;50.890;5.982;2023-04-15T06:08:45;99482.66;;;10.00;52.30
36234;BME280;43467;50.890;5.982;2023-04-15T06:11:11;99482.84;;;9.97;52.25
36234;BME280;43467;50.890;5.982;2023-04-15T06:13:36;99488.97;;;9.98;52.65
36234;BME280;43467;50.890;5.982;2023-04-15T06:16:02;99500.72;;;9.92;52.96
36234;BME280;43467;50.890;5.982;2023-04-15T06:18:28;99498.50;;;9.85;53.12
36234;BME280;43467;50.890;5.982;2023-04-15T06:20:53;99511.50;;;9.89;53.40
36234;BME280;43467;50.890;5.982;2023-04-15T06:23:19;99516.94;;;9.86;53.89
36234;BME280;43467;50.890;5.982;2023-04-15T06:25:44;99517.78;;;9.87;53.78
36234;BME280;43467;50.890;5.982;2023-04-15T06:28:09;99519.19;;;9.94;53.23
36234;BME280;43467;50.890;5.982;2023-04-15T06:30:35;99522.75;;;9.93;53.62
36234;BME280;43467;50.890;5.982;2023-04-15T06:33:01;99526.16;;;9.95;53.36
36234;BME280;43467;50.890;5.982;2023-04-15T06:35:29;99534.00;;;9.96;53.74
36234;BME280;43467;50.890;5.982;2023-04-15T06:37:54;99525.22;;;9.96;53.84
36234;BME280;43467;50.890;5.982;2023-04-15T06:40:20;99536.41;;;10.01;53.63
36234;BME280;43467;50.890;5.982;2023-04-15T06:42:46;99539.06;;;10.01;53.96
36234;BME280;43467;50.890;5.982;2023-04-15T06:45:11;99537.44;;;9.98;54.09
36234;BME280;43467;50.890;5.982;2023-04-15T06:47:37;99543.56;;;9.99;54.08
36234;BME280;43467;50.890;5.982;2023-04-15T06:50:02;99540.66;;;10.03;54.07
36234;BME280;43467;50.890;5.982;2023-04-15T06:52:28;99546.75;;;10.05;54.01
36234;BME280;43467;50.890;5.982;2023-04-15T06:54:53;99561.31;;;10.12;54.84
36234;BME280;43467;50.890;5.982;2023-04-15T06:57:19;99560.19;;;10.18;54.63
36234;BME280;43467;50.890;5.982;2023-04-15T06:59:44;99564.94;;;10.27;54.01
36234;BME280;43467;50.890;5.982;2023-04-15T07:02:11;99563.34;;;10.40;53.65
36234;BME280;43467;50.890;5.982;2023-04-15T07:04:37;99562.09;;;10.47;54.13
36234;BME280;43467;50.890;5.982;2023-04-15T07:07:04;99569.84;;;10.50;53.39
36234;BME280;43467;50.890;5.982;2023-04-15T07:09:30;99576.50;;;10.57;53.57
36234;BME280;43467;50.890;5.982;2023-04-15T07:11:56;99583.31;;;10.61;53.49
36234;BME280;43467;50.890;5.982;2023-04-15T07:14:22;99579.50;;;10.67;53.27
36234;BME280;43467;50.890;5.982;2023-04-15T07:16:47;99589.03;;;10.69;53.50
36234;BME280;43467;50.890;5.982;2023-04-15T07:19:12;99596.72;;;10.74;53.47
36234;BME280;43467;50.890;5.982;2023-04-15T07:21:38;99600.13;;;10.76;53.68
36234;BME280;43467;50.890;5.982;2023-04-15T07:24:03;99599.13;;;10.79;53.94
36234;BME280;43467;50.890;5.982;2023-04-15T07:26:29;99600.66;;;10.83;54.04
36234;BME280;43467;50.890;5.982;2023-04-15T07:28:54;99609.19;;;10.88;53.86
36234;BME280;43467;50.890;5.982;2023-04-15T07:31:20;99620.97;;;10.98;53.61
36234;BME280;43467;50.890;5.982;2023-04-15T07:33:46;99617.13;;;11.03;53.28
36234;BME280;43467;50.890;5.982;2023-04-15T07:36:11;99623.84;;;11.09;52.85
36234;BME280;43467;50.890;5.982;2023-04-15T07:38:37;99630.97;;;11.08;53.07
36234;BME280;43467;50.890;5.982;2023-04-15T07:41:03;99622.16;;;11.08;53.17
36234;BME280;43467;50.890;5.982;2023-04-15T07:43:29;99643.25;;;11.09;53.47
36234;BME280;43467;50.890;5.982;2023-04-15T07:45:54;99642.97;;;11.14;53.70
36234;BME280;43467;50.890;5.982;2023-04-15T07:48:19;99639.81;;;11.23;53.94
36234;BME280;43467;50.890;5.982;2023-04-15T07:50:45;99651.34;;;11.22;53.94
36234;BME280;43467;50.890;5.982;2023-04-15T07:53:10;99652.19;;;11.23;54.47
36234;BME280;43467;50.890;5.982;2023-04-15T07:55:36;99653.25;;;11.20;54.59
36234;BME280;43467;50.890;5.982;2023-04-15T07:58:01;99658.38;;;11.23;55.07
36234;BME280;43467;50.890;5.982;2023-04-15T08:00:27;99667.69;;;11.14;56.14
36234;BME280;43467;50.890;5.982;2023-04-15T08:02:52;99659.25;;;11.08;56.81
36234;BME280;43467;50.890;5.982;2023-04-15T08:05:18;99668.19;;;11.05;57.59
36234;BME280;43467;50.890;5.982;2023-04-15T08:07:44;99668.88;;;11.09;57.85
36234;BME280;43467;50.890;5.982;2023-04-15T08:10:10;99673.44;;;11.07;58.15
36234;BME280;43467;50.890;5.982;2023-04-15T08:12:36;99670.59;;;11.10;58.63
36234;BME280;43467;50.890;5.982;2023-04-15T08:15:01;99681.34;;;11.23;58.63
36234;BME280;43467;50.890;5.982;2023-04-15T08:17:27;99686.72;;;11.37;59.12
36234;BME280;43467;50.890;5.982;2023-04-15T08:19:52;99667.59;;;11.32;59.31
36234;BME280;43467;50.890;5.982;2023-04-15T08:22:18;99681.41;;;11.52;59.05
36234;BME280;43467;50.890;5.982;2023-04-15T08:24:43;99690.88;;;11.56;59.95
36234;BME280;43467;50.890;5.982;2023-04-15T08:27:09;99692.28;;;11.62;60.13
36234;BME280;43467;50.890;5.982;2023-04-15T08:29:34;99688.25;;;11.71;59.85
36234;BME280;43467;50.890;5.982;2023-04-15T08:32:00;99687.75;;;11.80;59.21
36234;BME280;43467;50.890;5.982;2023-04-15T08:34:26;99696.91;;;11.74;59.09
36234;BME280;43467;50.890;5.982;2023-04-15T08:36:52;99692.03;;;11.66;58.85
36234;BME280;43467;50.890;5.982;2023-04-15T08:39:17;99708.91;;;11.65;59.52
36234;BME280;43467;50.890;5.982;2023-04-15T08:41:54;99706.25;;;11.65;59.38
36234;BME280;43467;50.890;5.982;2023-04-15T08:44:22;99715.31;;;11.61;59.81
36234;BME280;43467;50.890;5.982;2023-04-15T08:46:49;99708.91;;;11.65;59.43
36234;BME280;43467;50.890;5.982;2023-04-15T08:49:16;99714.22;;;11.65;59.17
36234;BME280;43467;50.890;5.982;2023-04-15T08:51:43;99701.63;;;11.69;58.84
36234;BME280;43467;50.890;5.982;2023-04-15T08:54:09;99715.22;;;11.79;58.65
36234;BME280;43467;50.890;5.982;2023-04-15T08:56:35;99713.16;;;11.84;58.41
36234;BME280;43467;50.890;5.982;2023-04-15T08:59:01;99713.75;;;11.89;58.20
36234;BME280;43467;50.890;5.982;2023-04-15T09:01:28;99724.25;;;11.90;58.67
36234;BME280;43467;50.890;5.982;2023-04-15T09:03:53;99724.75;;;11.97;58.12
36234;BME280;43467;50.890;5.982;2023-04-15T09:06:21;99728.00;;;12.02;58.33
36234;BME280;43467;50.890;5.982;2023-04-15T09:08:46;99732.56;;;12.14;58.29
36234;BME280;43467;50.890;5.982;2023-04-15T09:11:12;99742.06;;;12.18;57.45
36234;BME280;43467;50.890;5.982;2023-04-15T09:13:38;99734.53;;;12.10;58.17
36234;BME280;43467;50.890;5.982;2023-04-15T09:16:06;99749.16;;;12.18;58.00
36234;BME280;43467;50.890;5.982;2023-04-15T09:18:33;99747.16;;;12.21;58.05
36234;BME280;43467;50.890;5.982;2023-04-15T09:21:04;99753.81;;;12.28;56.98
36234;BME280;43467;50.890;5.982;2023-04-15T09:23:31;99756.19;;;12.33;57.09
36234;BME280;43467;50.890;5.982;2023-04-15T09:25:57;99760.84;;;12.43;56.82
36234;BME280;43467;50.890;5.982;2023-04-15T09:28:23;99764.47;;;12.42;55.96
36234;BME280;43467;50.890;5.982;2023-04-15T09:30:57;99772.63;;;12.53;55.79
36234;BME280;43467;50.890;5.982;2023-04-15T09:33:23;99767.03;;;12.58;54.30
36234;BME280;43467;50.890;5.982;2023-04-15T09:36:16;99784.56;;;12.61;53.88
36234;BME280;43467;50.890;5.982;2023-04-15T09:38:58;99770.06;;;12.66;53.24
36234;BME280;43467;50.890;5.982;2023-04-15T09:41:26;99778.41;;;12.74;52.02
36234;BME280;43467;50.890;5.982;2023-04-15T09:43:52;99780.69;;;12.80;52.21
36234;BME280;43467;50.890;5.982;2023-04-15T09:46:18;99783.19;;;12.83;52.04
36234;BME280;43467;50.890;5.982;2023-04-15T09:48:43;99792.94;;;12.83;52.03
36234;BME280;43467;50.890;5.982;2023-04-15T09:51:09;99799.19;;;12.82;51.98
36234;BME280;43467;50.890;5.982;2023-04-15T09:53:36;99796.53;;;12.82;52.17
36234;BME280;43467;50.890;5.982;2023-04-15T09:56:03;99792.81;;;12.84;51.63
36234;BME280;43467;50.890;5.982;2023-04-15T09:58:33;99795.00;;;12.92;52.11
36234;BME280;43467;50.890;5.982;2023-04-15T10:01:02;99804.22;;;13.00;51.40
36234;BME280;43467;50.890;5.982;2023-04-15T10:03:29;99807.63;;;13.02;49.92
36234;BME280;43467;50.890;5.982;2023-04-15T10:05:58;99809.91;;;13.09;50.81
36234;BME280;43467;50.890;5.982;2023-04-15T10:08:29;99813.94;;;13.16;50.93
36234;BME280;43467;50.890;5.982;2023-04-15T10:10:57;99814.78;;;13.16;51.01
36234;BME280;43467;50.890;5.982;2023-04-15T10:13:25;99820.13;;;13.16;51.03
36234;BME280;43467;50.890;5.982;2023-04-15T10:15:55;99814.22;;;13.11;49.40
36234;BME280;43467;50.890;5.982;2023-04-15T10:18:22;99828.38;;;13.12;48.31
36234;BME280;43467;50.890;5.982;2023-04-15T10:20:49;99828.84;;;13.18;48.02
36234;BME280;43467;50.890;5.982;2023-04-15T10:23:17;99827.47;;;13.25;48.28
36234;BME280;43467;50.890;5.982;2023-04-15T10:25:44;99827.13;;;13.31;49.16
36234;BME280;43467;50.890;5.982;2023-04-15T10:28:10;99827.84;;;13.33;48.51
36234;BME280;43467;50.890;5.982;2023-04-15T10:30:37;99829.28;;;13.39;48.41
36234;BME280;43467;50.890;5.982;2023-04-15T10:33:04;99838.47;;;13.47;48.26
36234;BME280;43467;50.890;5.982;2023-04-15T10:35:31;99840.56;;;13.57;48.03
36234;BME280;43467;50.890;5.982;2023-04-15T10:37:58;99842.66;;;13.52;46.92
36234;BME280;43467;50.890;5.982;2023-04-15T10:40:31;99839.78;;;13.55;47.15
36234;BME280;43467;50.890;5.982;2023-04-15T10:43:00;99841.38;;;13.57;47.65
36234;BME280;43467;50.890;5.982;2023-04-15T10:45:36;99846.63;;;13.59;48.45
36234;BME280;43467;50.890;5.982;2023-04-15T10:48:05;99852.50;;;13.64;49.15
36234;BME280;43467;50.890;5.982;2023-04-15T10:50:32;99868.31;;;13.53;45.46
36234;BME280;43467;50.890;5.982;2023-04-15T10:53:02;99854.66;;;13.44;46.40
36234;BME280;43467;50.890;5.982;2023-04-15T10:55:33;99853.41;;;13.36;46.06
36234;BME280;43467;50.890;5.982;2023-04-15T10:58:01;99868.88;;;13.43;46.79
36234;BME280;43467;50.890;5.982;2023-04-15T11:00:30;99861.16;;;13.53;46.21
36234;BME280;43467;50.890;5.982;2023-04-15T11:03:09;99858.69;;;13.64;46.72
36234;BME280;43467;50.890;5.982;2023-04-15T11:08:09;99856.53;;;13.83;47.46
36234;BME280;43467;50.890;5.982;2023-04-15T11:13:02;99864.66;;;13.68;48.68
36234;BME280;43467;50.890;5.982;2023-04-15T11:15:32;99875.88;;;13.73;48.84
36234;BME280;43467;50.890;5.982;2023-04-15T11:18:01;99872.22;;;13.74;47.90
36234;BME280;43467;50.890;5.982;2023-04-15T11:20:32;99878.59;;;13.85;47.73
36234;BME280;43467;50.890;5.982;2023-04-15T11:22:58;99876.28;;;13.93;47.51
36234;BME280;43467;50.890;5.982;2023-04-15T11:25:25;99880.13;;;14.02;47.50
36234;BME280;43467;50.890;5.982;2023-04-15T11:27:52;99888.03;;;14.04;46.03
36234;BME280;43467;50.890;5.982;2023-04-15T11:30:20;99893.09;;;13.94;43.87
36234;BME280;43467;50.890;5.982;2023-04-15T11:32:47;99891.28;;;13.94;43.92
36234;BME280;43467;50.890;5.982;2023-04-15T11:35:12;99889.97;;;14.02;44.44
36234;BME280;43467;50.890;5.982;2023-04-15T11:37:37;99896.59;;;13.94;44.67
36234;BME280;43467;50.890;5.982;2023-04-15T11:40:03;99902.13;;;14.06;46.09
36234;BME280;43467;50.890;5.982;2023-04-15T11:42:30;99912.25;;;14.13;46.10
36234;BME280;43467;50.890;5.982;2023-04-15T11:45:12;99900.75;;;14.13;47.07
36234;BME280;43467;50.890;5.982;2023-04-15T11:47:39;99913.34;;;13.96;46.54
36234;BME280;43467;50.890;5.982;2023-04-15T11:50:17;99919.16;;;13.89;46.63
36234;BME280;43467;50.890;5.982;2023-04-15T11:53:00;99914.38;;;13.94;46.48
36234;BME280;43467;50.890;5.982;2023-04-15T11:55:27;99918.09;;;13.91;46.89
36234;BME280;43467;50.890;5.982;2023-04-15T12:00:35;99934.34;;;14.01;48.05
36234;BME280;43467;50.890;5.982;2023-04-15T12:03:17;99922.94;;;13.99;48.13
36234;BME280;43467;50.890;5.982;2023-04-15T12:11:13;99945.16;;;14.12;49.20
36234;BME280;43467;50.890;5.982;2023-04-15T12:13:43;99948.53;;;14.02;49.20
36234;BME280;43467;50.890;5.982;2023-04-15T12:16:08;99939.09;;;13.96;48.88
36234;BME280;43467;50.890;5.982;2023-04-15T12:18:37;99949.41;;;14.15;48.76
36234;BME280;43467;50.890;5.982;2023-04-15T12:21:09;99944.38;;;14.10;48.82
36234;BME280;43467;50.890;5.982;2023-04-15T12:23:56;99948.63;;;14.27;48.38
36234;BME280;43467;50.890;5.982;2023-04-15T12:26:30;99950.13;;;14.31;48.74
36234;BME280;43467;50.890;5.982;2023-04-15T12:29:05;99952.53;;;14.35;48.64
36234;BME280;43467;50.890;5.982;2023-04-15T12:31:32;99964.09;;;14.49;48.86
36234;BME280;43467;50.890;5.982;2023-04-15T12:33:58;99971.63;;;14.42;47.66
36234;BME280;43467;50.890;5.982;2023-04-15T12:36:25;99963.44;;;14.31;48.36
36234;BME280;43467;50.890;5.982;2023-04-15T12:38:52;99957.84;;;14.35;48.83
36234;BME280;43467;50.890;5.982;2023-04-15T12:41:21;99975.38;;;14.25;49.03
36234;BME280;43467;50.890;5.982;2023-04-15T12:43:48;99975.16;;;14.28;49.13
36234;BME280;43467;50.890;5.982;2023-04-15T12:46:15;99976.88;;;14.29;49.38
36234;BME280;43467;50.890;5.982;2023-04-15T12:48:42;99969.16;;;14.39;49.08
36234;BME280;43467;50.890;5.982;2023-04-15T12:51:09;99989.50;;;14.40;48.94
36234;BME280;43467;50.890;5.982;2023-04-15T12:53:35;99976.97;;;14.42;48.81
36234;BME280;43467;50.890;5.982;2023-04-15T12:56:01;99998.16;;;14.43;49.11
36234;BME280;43467;50.890;5.982;2023-04-15T12:58:27;99990.41;;;14.26;48.46
36234;BME280;43467;50.890;5.982;2023-04-15T13:00:54;99998.97;;;14.17;48.47
36234;BME280;43467;50.890;5.982;2023-04-15T13:03:22;100009.88;;;14.27;48.01
36234;BME280;43467;50.890;5.982;2023-04-15T13:05:48;99999.97;;;14.43;48.01
36234;BME280;43467;50.890;5.982;2023-04-15T13:08:15;100009.13;;;14.66;48.10
36234;BME280;43467;50.890;5.982;2023-04-15T13:10:42;100006.22;;;14.83;48.58